sensor_id;sensor_type;location;lat;lon;timestamp;P1;durP1;ratioP1;P2;durP2;ratioP2
55784;SDS011;41709;52.536;5.688;2023-07-24T00:01:08;5.70;;;4.40;;
55784;SDS011;41709;52.536;5.688;2023-07-24T00:03:34;5.70;;;4.32;;
55784;SDS011;41709;52.536;5.688;2023-07-24T00:06:00;5.85;;;4.68;;
55784;SDS011;41709;52.536;5.688;2023-07-24T00:08:26;5.47;;;4.43;;
55784;SDS011;41709;52.536;5.688;2023-07-24T00:10:51;5.20;;;4.13;;
55784;SDS011;41709;52.536;5.688;2023-07-24T00:13:17;7.10;;;4.43;;
55784;SDS011;41709;52.536;5.688;2023-07-24T00:15:43;5.82;;;4.85;;
55784;SDS011;41709;52.536;5.688;2023-07-24T00:18:08;5.20;;;4.18;;
55784;SDS011;41709;52.536;5.688;2023-07-24T00:20:34;5.15;;;4.20;;
55784;SDS011;41709;52.536;5.688;2023-07-24T00:22:59;7.65;;;4.30;;
55784;SDS011;41709;52.536;5.688;2023-07-24T00:25:25;5.55;;;4.05;;
55784;SDS011;41709;52.536;5.688;2023-07-24T00:27:51;11.70;;;4.63;;
55784;SDS011;41709;52.536;5.688;2023-07-24T00:30:16;4.45;;;4.05;;
55784;SDS011;41709;52.536;5.688;2023-07-24T00:32:42;5.00;;;4.05;;
55784;SDS011;41709;52.536;5.688;2023-07-24T00:35:07;5.38;;;3.75;;
55784;SDS011;41709;52.536;5.688;2023-07-24T00:37:33;4.32;;;3.78;;
55784;SDS011;41709;52.536;5.688;2023-07-24T00:39:59;5.15;;;3.97;;
55784;SDS011;41709;52.536;5.688;2023-07-24T00:42:25;7.07;;;4.05;;
55784;SDS011;41709;52.536;5.688;2023-07-24T00:44:50;5.20;;;4.10;;
55784;SDS011;41709;52.536;5.688;2023-07-24T00:47:16;6.40;;;4.18;;
55784;SDS011;41709;52.536;5.688;2023-07-24T00:49:42;6.88;;;4.20;;
55784;SDS011;41709;52.536;5.688;2023-07-24T00:52:09;4.35;;;3.85;;
55784;SDS011;41709;52.536;5.688;2023-07-24T00:54:36;7.55;;;4.38;;
55784;SDS011;41709;52.536;5.688;2023-07-24T00:57:03;6.60;;;5.05;;
55784;SDS011;41709;52.536;5.688;2023-07-24T00:59:29;5.78;;;4.22;;
55784;SDS011;41709;52.536;5.688;2023-07-24T01:01:55;6.10;;;5.45;;
55784;SDS011;41709;52.536;5.688;2023-07-24T01:04:21;6.97;;;5.03;;
55784;SDS011;41709;52.536;5.688;2023-07-24T01:06:47;6.53;;;5.00;;
55784;SDS011;41709;52.536;5.688;2023-07-24T01:09:13;5.88;;;5.07;;
55784;SDS011;41709;52.536;5.688;2023-07-24T01:11:50;8.25;;;5.45;;
55784;SDS011;41709;52.536;5.688;2023-07-24T01:14:23;5.82;;;5.20;;
55784;SDS011;41709;52.536;5.688;2023-07-24T01:16:52;6.68;;;5.22;;
55784;SDS011;41709;52.536;5.688;2023-07-24T01:25:00;7.10;;;5.65;;
55784;SDS011;41709;52.536;5.688;2023-07-24T01:27:28;7.47;;;5.38;;
55784;SDS011;41709;52.536;5.688;2023-07-24T01:29:54;8.02;;;6.20;;
55784;SDS011;41709;52.536;5.688;2023-07-24T01:32:21;6.90;;;5.57;;
55784;SDS011;41709;52.536;5.688;2023-07-24T01:34:47;6.25;;;5.65;;
55784;SDS011;41709;52.536;5.688;2023-07-24T01:37:13;7.30;;;5.55;;
55784;SDS011;41709;52.536;5.688;2023-07-24T01:39:42;6.10;;;5.50;;
55784;SDS011;41709;52.536;5.688;2023-07-24T01:42:09;6.57;;;5.63;;
55784;SDS011;41709;52.536;5.688;2023-07-24T01:44:35;6.90;;;5.63;;
55784;SDS011;41709;52.536;5.688;2023-07-24T01:47:01;7.72;;;4.78;;
55784;SDS011;41709;52.536;5.688;2023-07-24T01:49:26;7.45;;;5.97;;
55784;SDS011;41709;52.536;5.688;2023-07-24T01:51:52;8.60;;;5.75;;
55784;SDS011;41709;52.536;5.688;2023-07-24T01:54:17;6.63;;;5.90;;
55784;SDS011;41709;52.536;5.688;2023-07-24T01:56:43;7.35;;;6.15;;
55784;SDS011;41709;52.536;5.688;2023-07-24T01:59:09;7.30;;;6.38;;
55784;SDS011;41709;52.536;5.688;2023-07-24T02:01:34;6.93;;;5.30;;
55784;SDS011;41709;52.536;5.688;2023-07-24T02:04:00;7.45;;;6.00;;
55784;SDS011;41709;52.536;5.688;2023-07-24T02:06:26;6.38;;;5.70;;
55784;SDS011;41709;52.536;5.688;2023-07-24T02:08:51;7.65;;;5.70;;
55784;SDS011;41709;52.536;5.688;2023-07-24T02:11:17;7.70;;;5.72;;
55784;SDS011;41709;52.536;5.688;2023-07-24T02:13:43;6.18;;;5.30;;
55784;SDS011;41709;52.536;5.688;2023-07-24T02:16:10;7.50;;;6.10;;
55784;SDS011;41709;52.536;5.688;2023-07-24T02:18:40;9.63;;;5.40;;
55784;SDS011;41709;52.536;5.688;2023-07-24T02:21:07;7.85;;;5.80;;
55784;SDS011;41709;52.536;5.688;2023-07-24T02:23:33;7.05;;;5.60;;
55784;SDS011;41709;52.536;5.688;2023-07-24T02:25:59;6.72;;;5.80;;
55784;SDS011;41709;52.536;5.688;2023-07-24T02:28:25;6.07;;;4.93;;
55784;SDS011;41709;52.536;5.688;2023-07-24T02:30:50;7.43;;;5.60;;
55784;SDS011;41709;52.536;5.688;2023-07-24T02:33:17;7.88;;;5.60;;
55784;SDS011;41709;52.536;5.688;2023-07-24T02:35:42;6.80;;;4.88;;
55784;SDS011;41709;52.536;5.688;2023-07-24T02:38:09;8.00;;;5.32;;
55784;SDS011;41709;52.536;5.688;2023-07-24T02:40:35;6.05;;;5.45;;
55784;SDS011;41709;52.536;5.688;2023-07-24T02:43:01;8.02;;;5.68;;
55784;SDS011;41709;52.536;5.688;2023-07-24T02:45:27;7.15;;;5.70;;
55784;SDS011;41709;52.536;5.688;2023-07-24T02:47:52;5.72;;;4.93;;
55784;SDS011;41709;52.536;5.688;2023-07-24T02:50:18;8.90;;;6.03;;
55784;SDS011;41709;52.536;5.688;2023-07-24T02:52:43;9.82;;;5.80;;
55784;SDS011;41709;52.536;5.688;2023-07-24T02:55:09;6.72;;;5.50;;
55784;SDS011;41709;52.536;5.688;2023-07-24T02:57:34;7.20;;;5.15;;
55784;SDS011;41709;52.536;5.688;2023-07-24T03:00:00;7.13;;;5.25;;
55784;SDS011;41709;52.536;5.688;2023-07-24T03:02:26;7.47;;;5.70;;
55784;SDS011;41709;52.536;5.688;2023-07-24T03:04:51;6.60;;;5.90;;
55784;SDS011;41709;52.536;5.688;2023-07-24T03:07:17;6.53;;;5.78;;
55784;SDS011;41709;52.536;5.688;2023-07-24T03:09:43;7.65;;;5.85;;
55784;SDS011;41709;52.536;5.688;2023-07-24T03:12:08;6.68;;;5.20;;
55784;SDS011;41709;52.536;5.688;2023-07-24T03:14:34;6.90;;;5.53;;
55784;SDS011;41709;52.536;5.688;2023-07-24T03:16:59;6.00;;;5.40;;
55784;SDS011;41709;52.536;5.688;2023-07-24T03:19:25;6.07;;;5.47;;
55784;SDS011;41709;52.536;5.688;2023-07-24T03:21:50;8.02;;;6.07;;
55784;SDS011;41709;52.536;5.688;2023-07-24T03:24:16;5.90;;;5.30;;
55784;SDS011;41709;52.536;5.688;2023-07-24T03:26:42;7.25;;;5.90;;
55784;SDS011;41709;52.536;5.688;2023-07-24T03:29:07;5.93;;;5.28;;
55784;SDS011;41709;52.536;5.688;2023-07-24T03:31:33;7.07;;;5.65;;
55784;SDS011;41709;52.536;5.688;2023-07-24T03:33:59;7.15;;;5.88;;
55784;SDS011;41709;52.536;5.688;2023-07-24T03:36:24;8.90;;;6.10;;
55784;SDS011;41709;52.536;5.688;2023-07-24T03:38:50;6.93;;;5.85;;
55784;SDS011;41709;52.536;5.688;2023-07-24T03:41:15;7.45;;;6.28;;
55784;SDS011;41709;52.536;5.688;2023-07-24T03:43:41;6.95;;;5.70;;
55784;SDS011;41709;52.536;5.688;2023-07-24T03:46:07;9.63;;;5.32;;
55784;SDS011;41709;52.536;5.688;2023-07-24T03:48:32;7.05;;;5.43;;
55784;SDS011;41709;52.536;5.688;2023-07-24T03:50:59;6.70;;;5.50;;
55784;SDS011;41709;52.536;5.688;2023-07-24T03:53:26;6.63;;;5.80;;
55784;SDS011;41709;52.536;5.688;2023-07-24T03:55:52;9.23;;;6.15;;
55784;SDS011;41709;52.536;5.688;2023-07-24T03:58:18;7.32;;;6.07;;
55784;SDS011;41709;52.536;5.688;2023-07-24T04:00:43;9.48;;;5.80;;
55784;SDS011;41709;52.536;5.688;2023-07-24T04:03:09;6.45;;;4.70;;
55784;SDS011;41709;52.536;5.688;2023-07-24T04:05:35;7.68;;;5.78;;
55784;SDS011;41709;52.536;5.688;2023-07-24T04:08:01;7.82;;;5.53;;
55784;SDS011;41709;52.536;5.688;2023-07-24T04:10:27;6.35;;;5.53;;
55784;SDS011;41709;52.536;5.688;2023-07-24T04:12:53;5.72;;;5.15;;
55784;SDS011;41709;52.536;5.688;2023-07-24T04:15:19;8.90;;;5.75;;
55784;SDS011;41709;52.536;5.688;2023-07-24T04:17:45;6.88;;;5.53;;
55784;SDS011;41709;52.536;5.688;2023-07-24T04:20:11;7.97;;;6.10;;
55784;SDS011;41709;52.536;5.688;2023-07-24T04:22:36;6.47;;;5.40;;
55784;SDS011;41709;52.536;5.688;2023-07-24T04:25:02;10.10;;;6.20;;
55784;SDS011;41709;52.536;5.688;2023-07-24T04:27:28;8.82;;;5.78;;
55784;SDS011;41709;52.536;5.688;2023-07-24T04:29:54;6.72;;;5.93;;
55784;SDS011;41709;52.536;5.688;2023-07-24T04:32:19;6.10;;;5.30;;
55784;SDS011;41709;52.536;5.688;2023-07-24T04:34:45;8.15;;;5.95;;
55784;SDS011;41709;52.536;5.688;2023-07-24T04:37:10;6.75;;;5.07;;
55784;SDS011;41709;52.536;5.688;2023-07-24T04:39:38;7.22;;;5.82;;
55784;SDS011;41709;52.536;5.688;2023-07-24T04:42:04;6.95;;;5.55;;
55784;SDS011;41709;52.536;5.688;2023-07-24T04:44:30;9.13;;;6.20;;
55784;SDS011;41709;52.536;5.688;2023-07-24T04:46:57;7.60;;;5.47;;
55784;SDS011;41709;52.536;5.688;2023-07-24T04:49:23;7.30;;;6.07;;
55784;SDS011;41709;52.536;5.688;2023-07-24T04:51:49;6.65;;;5.53;;
55784;SDS011;41709;52.536;5.688;2023-07-24T04:54:15;8.55;;;6.07;;
55784;SDS011;41709;52.536;5.688;2023-07-24T04:56:41;7.30;;;5.35;;
55784;SDS011;41709;52.536;5.688;2023-07-24T04:59:07;8.73;;;5.25;;
55784;SDS011;41709;52.536;5.688;2023-07-24T05:01:32;7.55;;;5.78;;
55784;SDS011;41709;52.536;5.688;2023-07-24T05:03:58;7.25;;;5.35;;
55784;SDS011;41709;52.536;5.688;2023-07-24T05:06:23;8.80;;;5.53;;
55784;SDS011;41709;52.536;5.688;2023-07-24T05:08:49;11.48;;;6.03;;
55784;SDS011;41709;52.536;5.688;2023-07-24T05:11:15;8.90;;;5.32;;
55784;SDS011;41709;52.536;5.688;2023-07-24T05:13:40;7.15;;;5.15;;
55784;SDS011;41709;52.536;5.688;2023-07-24T05:16:06;9.77;;;5.43;;
55784;SDS011;41709;52.536;5.688;2023-07-24T05:18:31;7.25;;;4.78;;
55784;SDS011;41709;52.536;5.688;2023-07-24T05:20:57;8.52;;;5.18;;
55784;SDS011;41709;52.536;5.688;2023-07-24T05:23:22;7.13;;;4.72;;
55784;SDS011;41709;52.536;5.688;2023-07-24T05:25:55;7.10;;;5.07;;
55784;SDS011;41709;52.536;5.688;2023-07-24T05:28:27;8.75;;;5.70;;
55784;SDS011;41709;52.536;5.688;2023-07-24T05:30:54;8.02;;;5.50;;
55784;SDS011;41709;52.536;5.688;2023-07-24T05:33:20;6.65;;;4.78;;
55784;SDS011;41709;52.536;5.688;2023-07-24T05:35:45;6.10;;;5.10;;
55784;SDS011;41709;52.536;5.688;2023-07-24T05:38:11;7.50;;;4.75;;
55784;SDS011;41709;52.536;5.688;2023-07-24T05:40:36;7.68;;;5.65;;
55784;SDS011;41709;52.536;5.688;2023-07-24T05:43:02;6.35;;;4.85;;
55784;SDS011;41709;52.536;5.688;2023-07-24T05:45:29;7.32;;;5.10;;
55784;SDS011;41709;52.536;5.688;2023-07-24T05:47:54;11.23;;;5.70;;
55784;SDS011;41709;52.536;5.688;2023-07-24T05:50:20;8.45;;;5.05;;
55784;SDS011;41709;52.536;5.688;2023-07-24T05:52:45;7.88;;;5.15;;
55784;SDS011;41709;52.536;5.688;2023-07-24T05:55:11;7.32;;;4.88;;
55784;SDS011;41709;52.536;5.688;2023-07-24T05:57:37;6.60;;;4.55;;
55784;SDS011;41709;52.536;5.688;2023-07-24T06:00:05;8.63;;;5.07;;
55784;SDS011;41709;52.536;5.688;2023-07-24T06:04:57;8.55;;;4.72;;
55784;SDS011;41709;52.536;5.688;2023-07-24T06:07:22;8.10;;;5.28;;
55784;SDS011;41709;52.536;5.688;2023-07-24T06:09:49;9.73;;;4.28;;
55784;SDS011;41709;52.536;5.688;2023-07-24T06:12:14;7.60;;;4.32;;
55784;SDS011;41709;52.536;5.688;2023-07-24T06:14:40;10.35;;;4.80;;
55784;SDS011;41709;52.536;5.688;2023-07-24T06:17:06;10.10;;;4.57;;
55784;SDS011;41709;52.536;5.688;2023-07-24T06:19:32;10.07;;;5.47;;
55784;SDS011;41709;52.536;5.688;2023-07-24T06:21:57;9.73;;;4.72;;
55784;SDS011;41709;52.536;5.688;2023-07-24T06:24:23;10.80;;;5.10;;
55784;SDS011;41709;52.536;5.688;2023-07-24T06:26:49;9.35;;;4.80;;
55784;SDS011;41709;52.536;5.688;2023-07-24T06:29:15;8.32;;;4.45;;
55784;SDS011;41709;52.536;5.688;2023-07-24T06:31:41;10.30;;;5.05;;
55784;SDS011;41709;52.536;5.688;2023-07-24T06:34:07;9.93;;;4.65;;
55784;SDS011;41709;52.536;5.688;2023-07-24T06:36:33;11.40;;;5.25;;
55784;SDS011;41709;52.536;5.688;2023-07-24T06:38:58;12.63;;;4.95;;
55784;SDS011;41709;52.536;5.688;2023-07-24T06:41:24;18.83;;;5.28;;
55784;SDS011;41709;52.536;5.688;2023-07-24T06:43:50;8.40;;;5.10;;
55784;SDS011;41709;52.536;5.688;2023-07-24T06:46:16;11.35;;;4.82;;
55784;SDS011;41709;52.536;5.688;2023-07-24T06:48:42;14.25;;;5.30;;
55784;SDS011;41709;52.536;5.688;2023-07-24T06:51:07;11.75;;;5.57;;
55784;SDS011;41709;52.536;5.688;2023-07-24T06:53:33;10.20;;;5.10;;
55784;SDS011;41709;52.536;5.688;2023-07-24T06:55:59;7.97;;;4.85;;
55784;SDS011;41709;52.536;5.688;2023-07-24T06:58:24;11.30;;;4.68;;
55784;SDS011;41709;52.536;5.688;2023-07-24T07:00:50;11.63;;;5.20;;
55784;SDS011;41709;52.536;5.688;2023-07-24T07:03:15;7.50;;;4.80;;
55784;SDS011;41709;52.536;5.688;2023-07-24T07:05:41;12.98;;;5.57;;
55784;SDS011;41709;52.536;5.688;2023-07-24T07:08:07;9.25;;;5.97;;
55784;SDS011;41709;52.536;5.688;2023-07-24T07:10:32;9.07;;;5.10;;
55784;SDS011;41709;52.536;5.688;2023-07-24T07:12:58;10.93;;;5.03;;
55784;SDS011;41709;52.536;5.688;2023-07-24T07:15:23;9.70;;;5.13;;
55784;SDS011;41709;52.536;5.688;2023-07-24T07:17:49;11.10;;;5.53;;
55784;SDS011;41709;52.536;5.688;2023-07-24T07:20:15;10.30;;;5.57;;
55784;SDS011;41709;52.536;5.688;2023-07-24T07:22:41;10.27;;;6.22;;
55784;SDS011;41709;52.536;5.688;2023-07-24T07:25:06;11.45;;;6.05;;
55784;SDS011;41709;52.536;5.688;2023-07-24T07:27:32;10.23;;;5.60;;
55784;SDS011;41709;52.536;5.688;2023-07-24T07:29:57;11.65;;;5.75;;
55784;SDS011;41709;52.536;5.688;2023-07-24T07:32:23;9.43;;;5.63;;
55784;SDS011;41709;52.536;5.688;2023-07-24T07:34:49;10.27;;;4.28;;
55784;SDS011;41709;52.536;5.688;2023-07-24T07:37:15;10.48;;;5.05;;
55784;SDS011;41709;52.536;5.688;2023-07-24T07:39:41;9.63;;;4.10;;
55784;SDS011;41709;52.536;5.688;2023-07-24T07:42:06;9.38;;;4.20;;
55784;SDS011;41709;52.536;5.688;2023-07-24T07:44:32;8.38;;;4.10;;
55784;SDS011;41709;52.536;5.688;2023-07-24T07:46:57;9.98;;;4.95;;
55784;SDS011;41709;52.536;5.688;2023-07-24T07:49:23;8.38;;;4.68;;
55784;SDS011;41709;52.536;5.688;2023-07-24T07:51:48;8.23;;;4.53;;
55784;SDS011;41709;52.536;5.688;2023-07-24T07:54:14;9.13;;;4.65;;
55784;SDS011;41709;52.536;5.688;2023-07-24T07:56:40;9.05;;;4.22;;
55784;SDS011;41709;52.536;5.688;2023-07-24T07:59:06;12.30;;;4.90;;
55784;SDS011;41709;52.536;5.688;2023-07-24T08:01:32;11.10;;;4.63;;
55784;SDS011;41709;52.536;5.688;2023-07-24T08:03:57;9.13;;;4.32;;
55784;SDS011;41709;52.536;5.688;2023-07-24T08:06:23;9.35;;;4.63;;
55784;SDS011;41709;52.536;5.688;2023-07-24T08:08:49;8.27;;;4.22;;
55784;SDS011;41709;52.536;5.688;2023-07-24T08:11:15;8.73;;;4.35;;
55784;SDS011;41709;52.536;5.688;2023-07-24T08:13:41;10.88;;;4.55;;
55784;SDS011;41709;52.536;5.688;2023-07-24T08:16:13;9.88;;;4.30;;
55784;SDS011;41709;52.536;5.688;2023-07-24T08:18:43;9.80;;;4.53;;
55784;SDS011;41709;52.536;5.688;2023-07-24T08:21:10;11.05;;;4.35;;
55784;SDS011;41709;52.536;5.688;2023-07-24T08:23:36;9.63;;;4.30;;
55784;SDS011;41709;52.536;5.688;2023-07-24T08:26:02;11.77;;;4.57;;
55784;SDS011;41709;52.536;5.688;2023-07-24T08:28:27;10.95;;;4.95;;
55784;SDS011;41709;52.536;5.688;2023-07-24T08:30:56;9.02;;;4.60;;
55784;SDS011;41709;52.536;5.688;2023-07-24T08:33:23;8.10;;;3.95;;
55784;SDS011;41709;52.536;5.688;2023-07-24T08:36:02;7.97;;;3.78;;
55784;SDS011;41709;52.536;5.688;2023-07-24T08:38:29;11.27;;;4.43;;
55784;SDS011;41709;52.536;5.688;2023-07-24T08:41:05;7.15;;;3.58;;
55784;SDS011;41709;52.536;5.688;2023-07-24T08:43:33;6.85;;;3.78;;
55784;SDS011;41709;52.536;5.688;2023-07-24T08:45:59;8.43;;;4.07;;
55784;SDS011;41709;52.536;5.688;2023-07-24T08:48:32;10.23;;;4.85;;
55784;SDS011;41709;52.536;5.688;2023-07-24T08:51:07;10.02;;;3.85;;
55784;SDS011;41709;52.536;5.688;2023-07-24T08:53:35;10.63;;;4.50;;
55784;SDS011;41709;52.536;5.688;2023-07-24T08:56:02;10.43;;;4.30;;
55784;SDS011;41709;52.536;5.688;2023-07-24T08:58:29;6.32;;;3.53;;
55784;SDS011;41709;52.536;5.688;2023-07-24T09:00:57;9.20;;;3.80;;
55784;SDS011;41709;52.536;5.688;2023-07-24T09:03:24;10.00;;;4.38;;
55784;SDS011;41709;52.536;5.688;2023-07-24T09:05:50;6.97;;;4.15;;
55784;SDS011;41709;52.536;5.688;2023-07-24T09:08:16;11.43;;;4.15;;
55784;SDS011;41709;52.536;5.688;2023-07-24T09:10:42;9.52;;;4.85;;
55784;SDS011;41709;52.536;5.688;2023-07-24T09:13:07;7.72;;;4.68;;
55784;SDS011;41709;52.536;5.688;2023-07-24T09:20:37;5.88;;;3.55;;
55784;SDS011;41709;52.536;5.688;2023-07-24T09:23:04;11.68;;;3.55;;
55784;SDS011;41709;52.536;5.688;2023-07-24T09:25:30;10.10;;;3.60;;
55784;SDS011;41709;52.536;5.688;2023-07-24T09:27:59;9.15;;;4.32;;
55784;SDS011;41709;52.536;5.688;2023-07-24T09:30:25;6.70;;;3.60;;
55784;SDS011;41709;52.536;5.688;2023-07-24T09:32:54;6.40;;;4.45;;
55784;SDS011;41709;52.536;5.688;2023-07-24T09:37:50;6.97;;;3.47;;
55784;SDS011;41709;52.536;5.688;2023-07-24T09:40:26;9.20;;;3.80;;
55784;SDS011;41709;52.536;5.688;2023-07-24T09:42:51;8.50;;;3.85;;
55784;SDS011;41709;52.536;5.688;2023-07-24T09:45:17;6.20;;;3.88;;
55784;SDS011;41709;52.536;5.688;2023-07-24T09:47:42;7.65;;;4.40;;
55784;SDS011;41709;52.536;5.688;2023-07-24T09:50:08;9.07;;;5.03;;
55784;SDS011;41709;52.536;5.688;2023-07-24T09:52:34;10.48;;;4.20;;
55784;SDS011;41709;52.536;5.688;2023-07-24T09:55:19;6.18;;;3.17;;
55784;SDS011;41709;52.536;5.688;2023-07-24T09:57:48;7.35;;;3.67;;
55784;SDS011;41709;52.536;5.688;2023-07-24T10:00:16;8.23;;;3.35;;
55784;SDS011;41709;52.536;5.688;2023-07-24T10:02:41;6.65;;;3.47;;
55784;SDS011;41709;52.536;5.688;2023-07-24T10:05:07;8.13;;;3.70;;
55784;SDS011;41709;52.536;5.688;2023-07-24T10:07:33;9.40;;;3.90;;
55784;SDS011;41709;52.536;5.688;2023-07-24T10:09:59;7.00;;;3.58;;
55784;SDS011;41709;52.536;5.688;2023-07-24T10:12:26;8.80;;;3.50;;
55784;SDS011;41709;52.536;5.688;2023-07-24T10:14:56;6.03;;;3.53;;
55784;SDS011;41709;52.536;5.688;2023-07-24T10:17:35;6.53;;;3.40;;
55784;SDS011;41709;52.536;5.688;2023-07-24T10:20:04;9.07;;;3.13;;
55784;SDS011;41709;52.536;5.688;2023-07-24T10:22:30;6.10;;;3.33;;
55784;SDS011;41709;52.536;5.688;2023-07-24T10:24:56;7.53;;;4.30;;
55784;SDS011;41709;52.536;5.688;2023-07-24T10:27:25;7.70;;;3.53;;
55784;SDS011;41709;52.536;5.688;2023-07-24T10:32:27;5.68;;;3.42;;
55784;SDS011;41709;52.536;5.688;2023-07-24T10:35:11;5.90;;;3.75;;
55784;SDS011;41709;52.536;5.688;2023-07-24T10:37:37;7.10;;;4.25;;
55784;SDS011;41709;52.536;5.688;2023-07-24T10:40:03;7.10;;;3.88;;
55784;SDS011;41709;52.536;5.688;2023-07-24T10:42:30;5.13;;;3.13;;
55784;SDS011;41709;52.536;5.688;2023-07-24T10:45:08;6.05;;;4.43;;
55784;SDS011;41709;52.536;5.688;2023-07-24T10:47:35;7.57;;;4.00;;
55784;SDS011;41709;52.536;5.688;2023-07-24T10:50:01;11.05;;;3.88;;
55784;SDS011;41709;52.536;5.688;2023-07-24T10:52:29;8.95;;;4.30;;
55784;SDS011;41709;52.536;5.688;2023-07-24T10:55:02;8.10;;;4.88;;
55784;SDS011;41709;52.536;5.688;2023-07-24T10:57:31;8.90;;;4.93;;
55784;SDS011;41709;52.536;5.688;2023-07-24T10:59:57;7.68;;;4.65;;
55784;SDS011;41709;52.536;5.688;2023-07-24T11:02:24;8.00;;;4.55;;
55784;SDS011;41709;52.536;5.688;2023-07-24T11:04:50;4.45;;;3.63;;
55784;SDS011;41709;52.536;5.688;2023-07-24T11:07:15;7.78;;;4.15;;
55784;SDS011;41709;52.536;5.688;2023-07-24T11:09:41;8.60;;;4.43;;
55784;SDS011;41709;52.536;5.688;2023-07-24T11:12:10;6.32;;;4.47;;
55784;SDS011;41709;52.536;5.688;2023-07-24T11:14:50;5.97;;;3.60;;
55784;SDS011;41709;52.536;5.688;2023-07-24T11:17:19;10.25;;;3.80;;
55784;SDS011;41709;52.536;5.688;2023-07-24T11:19:44;6.32;;;3.75;;
55784;SDS011;41709;52.536;5.688;2023-07-24T11:22:10;9.88;;;3.55;;
55784;SDS011;41709;52.536;5.688;2023-07-24T11:24:45;6.97;;;3.03;;
55784;SDS011;41709;52.536;5.688;2023-07-24T11:27:13;7.18;;;4.25;;
55784;SDS011;41709;52.536;5.688;2023-07-24T11:29:40;8.02;;;3.63;;
55784;SDS011;41709;52.536;5.688;2023-07-24T11:32:07;6.85;;;3.67;;
55784;SDS011;41709;52.536;5.688;2023-07-24T11:34:32;5.45;;;3.25;;
55784;SDS011;41709;52.536;5.688;2023-07-24T11:36:59;8.80;;;4.38;;
55784;SDS011;41709;52.536;5.688;2023-07-24T11:39:26;6.80;;;3.53;;
55784;SDS011;41709;52.536;5.688;2023-07-24T11:41:51;9.40;;;3.47;;
55784;SDS011;41709;52.536;5.688;2023-07-24T11:44:24;7.25;;;3.55;;
55784;SDS011;41709;52.536;5.688;2023-07-24T11:46:50;6.70;;;3.13;;
55784;SDS011;41709;52.536;5.688;2023-07-24T11:49:21;9.00;;;4.35;;
55784;SDS011;41709;52.536;5.688;2023-07-24T11:51:47;9.55;;;3.33;;
55784;SDS011;41709;52.536;5.688;2023-07-24T11:54:14;5.20;;;3.05;;
55784;SDS011;41709;52.536;5.688;2023-07-24T11:56:40;6.85;;;3.47;;
55784;SDS011;41709;52.536;5.688;2023-07-24T11:59:09;6.07;;;3.58;;
55784;SDS011;41709;52.536;5.688;2023-07-24T12:01:35;5.63;;;3.20;;
55784;SDS011;41709;52.536;5.688;2023-07-24T12:04:02;5.57;;;3.20;;
55784;SDS011;41709;52.536;5.688;2023-07-24T12:06:30;11.65;;;4.13;;
55784;SDS011;41709;52.536;5.688;2023-07-24T12:09:03;6.72;;;2.97;;
55784;SDS011;41709;52.536;5.688;2023-07-24T12:11:33;4.80;;;3.55;;
55784;SDS011;41709;52.536;5.688;2023-07-24T12:14:04;8.32;;;4.28;;
55784;SDS011;41709;52.536;5.688;2023-07-24T12:16:29;6.45;;;4.57;;
55784;SDS011;41709;52.536;5.688;2023-07-24T12:18:55;7.47;;;3.95;;
55784;SDS011;41709;52.536;5.688;2023-07-24T12:21:21;16.42;;;4.60;;
55784;SDS011;41709;52.536;5.688;2023-07-24T12:23:47;5.93;;;3.53;;
55784;SDS011;41709;52.536;5.688;2023-07-24T12:26:12;10.27;;;4.22;;
55784;SDS011;41709;52.536;5.688;2023-07-24T12:28:38;10.57;;;4.88;;
55784;SDS011;41709;52.536;5.688;2023-07-24T12:31:03;11.07;;;6.07;;
55784;SDS011;41709;52.536;5.688;2023-07-24T12:33:29;5.60;;;4.18;;
55784;SDS011;41709;52.536;5.688;2023-07-24T12:35:55;5.47;;;4.07;;
55784;SDS011;41709;52.536;5.688;2023-07-24T12:38:20;6.78;;;4.05;;
55784;SDS011;41709;52.536;5.688;2023-07-24T12:40:46;8.35;;;4.03;;
55784;SDS011;41709;52.536;5.688;2023-07-24T12:43:12;3.78;;;3.08;;
55784;SDS011;41709;52.536;5.688;2023-07-24T12:45:39;6.47;;;2.50;;
55784;SDS011;41709;52.536;5.688;2023-07-24T12:48:05;4.25;;;2.88;;
55784;SDS011;41709;52.536;5.688;2023-07-24T12:50:30;3.28;;;2.53;;
55784;SDS011;41709;52.536;5.688;2023-07-24T12:52:56;2.85;;;2.33;;
55784;SDS011;41709;52.536;5.688;2023-07-24T12:55:21;4.57;;;2.58;;
55784;SDS011;41709;52.536;5.688;2023-07-24T12:57:47;5.57;;;2.70;;
55784;SDS011;41709;52.536;5.688;2023-07-24T13:00:12;3.03;;;2.15;;
55784;SDS011;41709;52.536;5.688;2023-07-24T13:02:38;4.53;;;3.35;;
55784;SDS011;41709;52.536;5.688;2023-07-24T13:05:04;5.55;;;3.92;;
55784;SDS011;41709;52.536;5.688;2023-07-24T13:07:30;6.47;;;4.53;;
55784;SDS011;41709;52.536;5.688;2023-07-24T13:09:55;6.22;;;4.70;;
55784;SDS011;41709;52.536;5.688;2023-07-24T13:12:21;5.93;;;3.60;;
55784;SDS011;41709;52.536;5.688;2023-07-24T13:14:47;5.57;;;3.38;;
55784;SDS011;41709;52.536;5.688;2023-07-24T13:17:12;4.28;;;2.90;;
55784;SDS011;41709;52.536;5.688;2023-07-24T13:19:38;3.38;;;2.70;;
55784;SDS011;41709;52.536;5.688;2023-07-24T13:22:04;1.80;;;1.70;;
55784;SDS011;41709;52.536;5.688;2023-07-24T13:24:29;3.88;;;1.60;;
55784;SDS011;41709;52.536;5.688;2023-07-24T13:26:55;2.38;;;2.10;;
55784;SDS011;41709;52.536;5.688;2023-07-24T13:29:20;5.25;;;2.20;;
55784;SDS011;41709;52.536;5.688;2023-07-24T13:31:46;3.95;;;2.13;;
55784;SDS011;41709;52.536;5.688;2023-07-24T13:34:12;7.85;;;2.85;;
55784;SDS011;41709;52.536;5.688;2023-07-24T13:36:37;2.78;;;1.67;;
55784;SDS011;41709;52.536;5.688;2023-07-24T13:39:03;3.50;;;2.08;;
55784;SDS011;41709;52.536;5.688;2023-07-24T13:41:28;2.47;;;1.70;;
55784;SDS011;41709;52.536;5.688;2023-07-24T13:43:54;4.47;;;2.05;;
55784;SDS011;41709;52.536;5.688;2023-07-24T13:46:20;2.55;;;1.35;;
55784;SDS011;41709;52.536;5.688;2023-07-24T13:48:45;2.83;;;1.10;;
55784;SDS011;41709;52.536;5.688;2023-07-24T13:51:11;3.03;;;1.15;;
55784;SDS011;41709;52.536;5.688;2023-07-24T13:53:36;3.15;;;0.98;;
55784;SDS011;41709;52.536;5.688;2023-07-24T13:56:02;3.70;;;1.08;;
55784;SDS011;41709;52.536;5.688;2023-07-24T13:58:28;5.07;;;1.73;;
55784;SDS011;41709;52.536;5.688;2023-07-24T14:00:54;4.38;;;1.58;;
55784;SDS011;41709;52.536;5.688;2023-07-24T14:03:19;2.67;;;0.95;;
55784;SDS011;41709;52.536;5.688;2023-07-24T14:05:45;3.00;;;0.70;;
55784;SDS011;41709;52.536;5.688;2023-07-24T14:08:11;2.75;;;0.88;;
55784;SDS011;41709;52.536;5.688;2023-07-24T14:10:36;3.95;;;1.13;;
55784;SDS011;41709;52.536;5.688;2023-07-24T14:13:02;3.45;;;0.93;;
55784;SDS011;41709;52.536;5.688;2023-07-24T14:15:29;5.25;;;1.05;;
55784;SDS011;41709;52.536;5.688;2023-07-24T14:17:54;5.10;;;1.25;;
55784;SDS011;41709;52.536;5.688;2023-07-24T14:20:20;2.30;;;1.20;;
55784;SDS011;41709;52.536;5.688;2023-07-24T14:22:46;4.35;;;1.00;;
55784;SDS011;41709;52.536;5.688;2023-07-24T14:25:11;4.75;;;0.82;;
55784;SDS011;41709;52.536;5.688;2023-07-24T14:27:37;2.67;;;0.90;;
55784;SDS011;41709;52.536;5.688;2023-07-24T14:30:02;2.03;;;0.70;;
55784;SDS011;41709;52.536;5.688;2023-07-24T14:32:28;2.03;;;0.98;;
55784;SDS011;41709;52.536;5.688;2023-07-24T14:34:54;3.13;;;0.93;;
55784;SDS011;41709;52.536;5.688;2023-07-24T14:37:20;2.88;;;1.20;;
55784;SDS011;41709;52.536;5.688;2023-07-24T14:39:45;4.47;;;1.88;;
55784;SDS011;41709;52.536;5.688;2023-07-24T14:42:11;6.25;;;1.30;;
55784;SDS011;41709;52.536;5.688;2023-07-24T14:44:37;3.40;;;1.20;;
55784;SDS011;41709;52.536;5.688;2023-07-24T14:47:03;3.13;;;1.23;;
55784;SDS011;41709;52.536;5.688;2023-07-24T14:49:29;3.42;;;0.80;;
55784;SDS011;41709;52.536;5.688;2023-07-24T14:51:54;2.33;;;0.75;;
55784;SDS011;41709;52.536;5.688;2023-07-24T14:54:20;4.63;;;1.75;;
55784;SDS011;41709;52.536;5.688;2023-07-24T14:56:46;5.10;;;1.13;;
55784;SDS011;41709;52.536;5.688;2023-07-24T14:59:11;5.45;;;1.00;;